Terminal Aerodrome Forecast
Issued by NWS Wilmington, OH

Current Version | Previous Version | Graphics & Text | Print | Product List | Glossary On
Versions: 1 2 3 4 5 6 7 8 9 10 11 12 13 14 15 16 17 18 19 20 21 22 23 24 25 26 27 28 29
201
FTUS41 KILN 290121 AAB
TAFILN
TAF AMD
KILN 290121Z 2901/2924 03006KT 4SM BR FEW040 FEW060
     FM290400 34004KT 2SM BR OVC025
     FM290800 32003KT 1SM BR OVC008
     FM291300 32006KT 3SM BR BKN015
     FM291500 29007KT P6SM BKN025
     FM291800 28008KT P6SM BKN035=

USA.gov is the U.S. government's official web portal to all federal, state and local government web resources and services.